sensor_id;sensor_type;location;lat;lon;timestamp;P1;durP1;ratioP1;P2;durP2;ratioP2
51848;SDS011;38952;51.090;-1.832;2022-09-13T00:00:48;0.75;;;0.60;;
51848;SDS011;38952;51.090;-1.832;2022-09-13T00:03:14;1.65;;;0.80;;
51848;SDS011;38952;51.090;-1.832;2022-09-13T00:05:40;0.63;;;0.52;;
51848;SDS011;38952;51.090;-1.832;2022-09-13T00:08:06;1.63;;;0.70;;
51848;SDS011;38952;51.090;-1.832;2022-09-13T00:10:33;1.17;;;0.85;;
51848;SDS011;38952;51.090;-1.832;2022-09-13T00:13:00;1.45;;;0.80;;
51848;SDS011;38952;51.090;-1.832;2022-09-13T00:15:26;0.60;;;0.60;;
51848;SDS011;38952;51.090;-1.832;2022-09-13T00:17:52;1.10;;;0.70;;
51848;SDS011;38952;51.090;-1.832;2022-09-13T00:20:17;0.70;;;0.57;;
51848;SDS011;38952;51.090;-1.832;2022-09-13T00:22:43;1.30;;;1.05;;
51848;SDS011;38952;51.090;-1.832;2022-09-13T00:25:08;1.73;;;1.15;;
51848;SDS011;38952;51.090;-1.832;2022-09-13T00:27:34;1.83;;;1.20;;
51848;SDS011;38952;51.090;-1.832;2022-09-13T00:30:02;1.25;;;1.00;;
51848;SDS011;38952;51.090;-1.832;2022-09-13T00:32:29;1.75;;;1.02;;
51848;SDS011;38952;51.090;-1.832;2022-09-13T00:34:54;2.25;;;1.45;;
51848;SDS011;38952;51.090;-1.832;2022-09-13T00:37:20;2.50;;;1.23;;
51848;SDS011;38952;51.090;-1.832;2022-09-13T00:39:46;1.98;;;1.20;;
51848;SDS011;38952;51.090;-1.832;2022-09-13T00:42:12;3.22;;;1.52;;
51848;SDS011;38952;51.090;-1.832;2022-09-13T00:44:57;2.15;;;1.20;;
51848;SDS011;38952;51.090;-1.832;2022-09-13T00:52:39;3.38;;;1.58;;
51848;SDS011;38952;51.090;-1.832;2022-09-13T00:55:12;2.03;;;1.27;;
51848;SDS011;38952;51.090;-1.832;2022-09-13T00:57:44;1.75;;;1.02;;
51848;SDS011;38952;51.090;-1.832;2022-09-13T01:00:13;2.80;;;1.25;;
51848;SDS011;38952;51.090;-1.832;2022-09-13T01:02:43;1.52;;;1.02;;
51848;SDS011;38952;51.090;-1.832;2022-09-13T01:05:32;3.53;;;1.30;;
51848;SDS011;38952;51.090;-1.832;2022-09-13T01:08:02;2.92;;;1.45;;
51848;SDS011;38952;51.090;-1.832;2022-09-13T01:10:36;3.20;;;1.50;;
51848;SDS011;38952;51.090;-1.832;2022-09-13T01:13:07;2.72;;;1.48;;
51848;SDS011;38952;51.090;-1.832;2022-09-13T01:15:39;2.80;;;1.65;;
51848;SDS011;38952;51.090;-1.832;2022-09-13T01:18:06;2.05;;;1.17;;
51848;SDS011;38952;51.090;-1.832;2022-09-13T01:26:34;1.63;;;1.30;;
51848;SDS011;38952;51.090;-1.832;2022-09-13T01:37:58;1.38;;;1.10;;
51848;SDS011;38952;51.090;-1.832;2022-09-13T01:46:05;2.13;;;1.23;;
51848;SDS011;38952;51.090;-1.832;2022-09-13T01:51:32;2.25;;;1.13;;
51848;SDS011;38952;51.090;-1.832;2022-09-13T01:54:25;1.83;;;1.20;;
51848;SDS011;38952;51.090;-1.832;2022-09-13T01:57:03;1.60;;;1.20;;
51848;SDS011;38952;51.090;-1.832;2022-09-13T01:59:53;2.30;;;1.60;;
51848;SDS011;38952;51.090;-1.832;2022-09-13T02:02:26;2.88;;;1.52;;
51848;SDS011;38952;51.090;-1.832;2022-09-13T02:05:05;3.00;;;1.52;;
51848;SDS011;38952;51.090;-1.832;2022-09-13T02:07:37;6.27;;;2.13;;
51848;SDS011;38952;51.090;-1.832;2022-09-13T02:10:15;6.47;;;1.98;;
51848;SDS011;38952;51.090;-1.832;2022-09-13T02:12:47;3.55;;;2.10;;
51848;SDS011;38952;51.090;-1.832;2022-09-13T02:15:15;4.28;;;2.03;;
51848;SDS011;38952;51.090;-1.832;2022-09-13T02:17:49;6.60;;;2.10;;
51848;SDS011;38952;51.090;-1.832;2022-09-13T02:20:22;3.42;;;2.28;;
51848;SDS011;38952;51.090;-1.832;2022-09-13T02:22:54;4.88;;;2.67;;
51848;SDS011;38952;51.090;-1.832;2022-09-13T02:25:23;4.80;;;2.75;;
51848;SDS011;38952;51.090;-1.832;2022-09-13T02:27:51;3.65;;;2.20;;
51848;SDS011;38952;51.090;-1.832;2022-09-13T02:30:25;5.68;;;3.00;;
51848;SDS011;38952;51.090;-1.832;2022-09-13T02:33:11;5.65;;;3.00;;
51848;SDS011;38952;51.090;-1.832;2022-09-13T02:36:25;4.28;;;2.92;;
51848;SDS011;38952;51.090;-1.832;2022-09-13T02:38:38;5.13;;;3.08;;
51848;SDS011;38952;51.090;-1.832;2022-09-13T02:41:20;5.22;;;2.72;;
51848;SDS011;38952;51.090;-1.832;2022-09-13T02:43:54;9.13;;;2.63;;
51848;SDS011;38952;51.090;-1.832;2022-09-13T02:52:10;4.13;;;2.90;;
51848;SDS011;38952;51.090;-1.832;2022-09-13T02:54:52;8.30;;;3.30;;
51848;SDS011;38952;51.090;-1.832;2022-09-13T02:57:27;6.03;;;2.67;;
51848;SDS011;38952;51.090;-1.832;2022-09-13T02:59:57;5.63;;;3.15;;
51848;SDS011;38952;51.090;-1.832;2022-09-13T03:02:24;4.88;;;3.40;;
51848;SDS011;38952;51.090;-1.832;2022-09-13T03:04:55;7.22;;;3.22;;
51848;SDS011;38952;51.090;-1.832;2022-09-13T03:07:22;7.00;;;3.65;;
51848;SDS011;38952;51.090;-1.832;2022-09-13T03:09:50;7.70;;;3.70;;
51848;SDS011;38952;51.090;-1.832;2022-09-13T03:12:23;5.85;;;4.20;;
51848;SDS011;38952;51.090;-1.832;2022-09-13T03:15:20;8.70;;;4.88;;
51848;SDS011;38952;51.090;-1.832;2022-09-13T03:20:58;6.28;;;3.65;;
51848;SDS011;38952;51.090;-1.832;2022-09-13T03:31:56;7.43;;;4.95;;
51848;SDS011;38952;51.090;-1.832;2022-09-13T03:39:57;8.98;;;6.00;;
51848;SDS011;38952;51.090;-1.832;2022-09-13T03:43:05;12.27;;;6.22;;
51848;SDS011;38952;51.090;-1.832;2022-09-13T03:45:26;10.80;;;6.30;;
51848;SDS011;38952;51.090;-1.832;2022-09-13T03:47:55;9.20;;;6.57;;
51848;SDS011;38952;51.090;-1.832;2022-09-13T03:50:22;10.65;;;6.95;;
51848;SDS011;38952;51.090;-1.832;2022-09-13T03:52:50;10.35;;;6.53;;
51848;SDS011;38952;51.090;-1.832;2022-09-13T03:55:22;12.07;;;7.10;;
51848;SDS011;38952;51.090;-1.832;2022-09-13T03:57:49;9.48;;;7.15;;
51848;SDS011;38952;51.090;-1.832;2022-09-13T04:00:14;12.45;;;7.78;;
51848;SDS011;38952;51.090;-1.832;2022-09-13T04:02:42;12.57;;;7.95;;
51848;SDS011;38952;51.090;-1.832;2022-09-13T04:05:08;10.95;;;7.78;;
51848;SDS011;38952;51.090;-1.832;2022-09-13T04:07:33;10.88;;;7.28;;
51848;SDS011;38952;51.090;-1.832;2022-09-13T04:09:58;10.70;;;7.60;;
51848;SDS011;38952;51.090;-1.832;2022-09-13T04:12:24;11.10;;;7.25;;
51848;SDS011;38952;51.090;-1.832;2022-09-13T04:14:51;11.02;;;7.80;;
51848;SDS011;38952;51.090;-1.832;2022-09-13T04:17:16;10.93;;;7.47;;
51848;SDS011;38952;51.090;-1.832;2022-09-13T04:19:42;12.02;;;7.25;;
51848;SDS011;38952;51.090;-1.832;2022-09-13T04:22:11;9.80;;;6.68;;
51848;SDS011;38952;51.090;-1.832;2022-09-13T04:24:36;12.63;;;7.15;;
51848;SDS011;38952;51.090;-1.832;2022-09-13T04:27:03;9.88;;;6.88;;
51848;SDS011;38952;51.090;-1.832;2022-09-13T04:29:29;7.43;;;5.85;;
51848;SDS011;38952;51.090;-1.832;2022-09-13T04:31:55;7.70;;;5.60;;
51848;SDS011;38952;51.090;-1.832;2022-09-13T04:34:21;8.93;;;6.32;;
51848;SDS011;38952;51.090;-1.832;2022-09-13T04:36:48;8.50;;;5.75;;
51848;SDS011;38952;51.090;-1.832;2022-09-13T04:39:14;5.05;;;4.40;;
51848;SDS011;38952;51.090;-1.832;2022-09-13T04:41:40;7.88;;;4.70;;
51848;SDS011;38952;51.090;-1.832;2022-09-13T04:44:08;4.30;;;3.70;;
51848;SDS011;38952;51.090;-1.832;2022-09-13T04:46:34;6.05;;;3.50;;
51848;SDS011;38952;51.090;-1.832;2022-09-13T04:48:59;3.97;;;2.88;;
51848;SDS011;38952;51.090;-1.832;2022-09-13T04:51:25;3.45;;;2.70;;
51848;SDS011;38952;51.090;-1.832;2022-09-13T04:53:51;3.83;;;2.55;;
51848;SDS011;38952;51.090;-1.832;2022-09-13T04:56:22;2.90;;;2.40;;
51848;SDS011;38952;51.090;-1.832;2022-09-13T04:58:55;3.35;;;2.40;;
51848;SDS011;38952;51.090;-1.832;2022-09-13T05:01:21;3.05;;;1.60;;
51848;SDS011;38952;51.090;-1.832;2022-09-13T05:03:49;2.45;;;1.77;;
51848;SDS011;38952;51.090;-1.832;2022-09-13T05:06:15;1.30;;;1.20;;
51848;SDS011;38952;51.090;-1.832;2022-09-13T05:08:54;1.45;;;0.93;;
51848;SDS011;38952;51.090;-1.832;2022-09-13T05:11:24;1.88;;;0.98;;
51848;SDS011;38952;51.090;-1.832;2022-09-13T05:13:51;0.65;;;0.57;;
51848;SDS011;38952;51.090;-1.832;2022-09-13T05:16:22;0.85;;;0.50;;
51848;SDS011;38952;51.090;-1.832;2022-09-13T05:18:50;0.88;;;0.50;;
51848;SDS011;38952;51.090;-1.832;2022-09-13T05:21:16;2.63;;;0.65;;
51848;SDS011;38952;51.090;-1.832;2022-09-13T05:23:43;0.30;;;0.28;;
51848;SDS011;38952;51.090;-1.832;2022-09-13T05:26:08;1.10;;;0.40;;
51848;SDS011;38952;51.090;-1.832;2022-09-13T05:28:35;1.10;;;0.43;;
51848;SDS011;38952;51.090;-1.832;2022-09-13T05:33:32;0.57;;;0.43;;
51848;SDS011;38952;51.090;-1.832;2022-09-13T05:35:59;1.48;;;0.40;;
51848;SDS011;38952;51.090;-1.832;2022-09-13T05:38:25;1.50;;;0.60;;
51848;SDS011;38952;51.090;-1.832;2022-09-13T05:40:55;1.35;;;0.50;;
51848;SDS011;38952;51.090;-1.832;2022-09-13T05:43:22;1.23;;;0.50;;
51848;SDS011;38952;51.090;-1.832;2022-09-13T05:45:48;1.48;;;0.30;;
51848;SDS011;38952;51.090;-1.832;2022-09-13T05:48:13;1.95;;;0.60;;
51848;SDS011;38952;51.090;-1.832;2022-09-13T05:50:39;3.72;;;0.60;;
51848;SDS011;38952;51.090;-1.832;2022-09-13T05:53:04;1.45;;;0.60;;
51848;SDS011;38952;51.090;-1.832;2022-09-13T05:55:30;0.77;;;0.50;;
51848;SDS011;38952;51.090;-1.832;2022-09-13T05:57:56;1.27;;;0.50;;
51848;SDS011;38952;51.090;-1.832;2022-09-13T06:00:22;3.60;;;0.60;;
51848;SDS011;38952;51.090;-1.832;2022-09-13T06:02:48;4.25;;;0.65;;
51848;SDS011;38952;51.090;-1.832;2022-09-13T06:05:13;0.47;;;0.40;;
51848;SDS011;38952;51.090;-1.832;2022-09-13T06:07:41;0.93;;;0.63;;
51848;SDS011;38952;51.090;-1.832;2022-09-13T06:10:08;0.98;;;0.40;;
51848;SDS011;38952;51.090;-1.832;2022-09-13T06:12:37;1.25;;;0.60;;
51848;SDS011;38952;51.090;-1.832;2022-09-13T06:15:03;3.05;;;0.70;;
51848;SDS011;38952;51.090;-1.832;2022-09-13T06:17:28;1.52;;;0.80;;
51848;SDS011;38952;51.090;-1.832;2022-09-13T06:19:54;2.53;;;0.73;;
51848;SDS011;38952;51.090;-1.832;2022-09-13T06:22:21;4.18;;;0.82;;
51848;SDS011;38952;51.090;-1.832;2022-09-13T06:24:46;5.57;;;1.17;;
51848;SDS011;38952;51.090;-1.832;2022-09-13T06:27:12;5.00;;;1.25;;
51848;SDS011;38952;51.090;-1.832;2022-09-13T06:29:37;2.33;;;0.70;;
51848;SDS011;38952;51.090;-1.832;2022-09-13T06:32:03;2.20;;;0.70;;
51848;SDS011;38952;51.090;-1.832;2022-09-13T06:34:28;2.85;;;0.95;;
51848;SDS011;38952;51.090;-1.832;2022-09-13T06:36:54;1.95;;;0.80;;
51848;SDS011;38952;51.090;-1.832;2022-09-13T06:39:19;2.90;;;0.80;;
51848;SDS011;38952;51.090;-1.832;2022-09-13T06:41:45;4.03;;;0.63;;
51848;SDS011;38952;51.090;-1.832;2022-09-13T06:44:10;0.95;;;0.38;;
51848;SDS011;38952;51.090;-1.832;2022-09-13T06:46:36;1.70;;;0.57;;
51848;SDS011;38952;51.090;-1.832;2022-09-13T06:49:03;3.05;;;0.70;;
51848;SDS011;38952;51.090;-1.832;2022-09-13T06:51:30;1.65;;;0.70;;
51848;SDS011;38952;51.090;-1.832;2022-09-13T06:53:57;1.83;;;0.77;;
51848;SDS011;38952;51.090;-1.832;2022-09-13T06:56:27;1.13;;;0.80;;
51848;SDS011;38952;51.090;-1.832;2022-09-13T06:58:55;1.60;;;0.95;;
51848;SDS011;38952;51.090;-1.832;2022-09-13T07:01:24;2.30;;;0.73;;
51848;SDS011;38952;51.090;-1.832;2022-09-13T07:03:59;1.95;;;0.55;;
51848;SDS011;38952;51.090;-1.832;2022-09-13T07:06:33;4.25;;;0.93;;
51848;SDS011;38952;51.090;-1.832;2022-09-13T07:09:13;2.97;;;0.57;;
51848;SDS011;38952;51.090;-1.832;2022-09-13T07:11:42;3.28;;;0.98;;
51848;SDS011;38952;51.090;-1.832;2022-09-13T07:14:11;1.15;;;0.60;;
51848;SDS011;38952;51.090;-1.832;2022-09-13T07:16:38;2.20;;;0.80;;
51848;SDS011;38952;51.090;-1.832;2022-09-13T07:19:05;2.08;;;0.85;;
51848;SDS011;38952;51.090;-1.832;2022-09-13T07:21:33;4.22;;;0.70;;
51848;SDS011;38952;51.090;-1.832;2022-09-13T07:23:59;7.07;;;1.40;;
51848;SDS011;38952;51.090;-1.832;2022-09-13T07:26:25;3.53;;;1.10;;
51848;SDS011;38952;51.090;-1.832;2022-09-13T07:28:53;2.92;;;1.02;;
51848;SDS011;38952;51.090;-1.832;2022-09-13T07:31:24;4.95;;;0.85;;
51848;SDS011;38952;51.090;-1.832;2022-09-13T07:33:58;4.35;;;1.15;;
51848;SDS011;38952;51.090;-1.832;2022-09-13T07:36:25;2.55;;;1.02;;
51848;SDS011;38952;51.090;-1.832;2022-09-13T07:38:52;2.13;;;1.30;;
51848;SDS011;38952;51.090;-1.832;2022-09-13T07:41:18;7.38;;;1.75;;
51848;SDS011;38952;51.090;-1.832;2022-09-13T07:43:45;9.40;;;2.10;;
51848;SDS011;38952;51.090;-1.832;2022-09-13T07:46:12;3.70;;;1.40;;
51848;SDS011;38952;51.090;-1.832;2022-09-13T07:48:40;4.97;;;1.45;;
51848;SDS011;38952;51.090;-1.832;2022-09-13T07:51:08;5.47;;;1.73;;
51848;SDS011;38952;51.090;-1.832;2022-09-13T07:53:35;3.72;;;1.73;;
51848;SDS011;38952;51.090;-1.832;2022-09-13T07:56:03;6.32;;;1.80;;
51848;SDS011;38952;51.090;-1.832;2022-09-13T07:58:31;5.80;;;1.75;;
51848;SDS011;38952;51.090;-1.832;2022-09-13T08:00:59;4.45;;;1.25;;
51848;SDS011;38952;51.090;-1.832;2022-09-13T08:03:28;4.50;;;1.40;;
51848;SDS011;38952;51.090;-1.832;2022-09-13T08:05:54;2.83;;;1.20;;
51848;SDS011;38952;51.090;-1.832;2022-09-13T08:08:20;3.58;;;1.60;;
51848;SDS011;38952;51.090;-1.832;2022-09-13T08:10:45;2.90;;;1.35;;
51848;SDS011;38952;51.090;-1.832;2022-09-13T08:13:11;3.05;;;1.45;;
51848;SDS011;38952;51.090;-1.832;2022-09-13T08:15:36;2.58;;;1.35;;
51848;SDS011;38952;51.090;-1.832;2022-09-13T08:18:01;3.97;;;1.75;;
51848;SDS011;38952;51.090;-1.832;2022-09-13T08:20:29;7.38;;;1.80;;
51848;SDS011;38952;51.090;-1.832;2022-09-13T08:22:54;3.05;;;1.58;;
51848;SDS011;38952;51.090;-1.832;2022-09-13T08:25:20;4.20;;;1.92;;
51848;SDS011;38952;51.090;-1.832;2022-09-13T08:27:45;6.13;;;1.60;;
51848;SDS011;38952;51.090;-1.832;2022-09-13T08:30:11;4.22;;;1.77;;
51848;SDS011;38952;51.090;-1.832;2022-09-13T08:32:37;6.35;;;1.48;;
51848;SDS011;38952;51.090;-1.832;2022-09-13T08:35:02;7.28;;;1.58;;
51848;SDS011;38952;51.090;-1.832;2022-09-13T08:37:28;3.60;;;1.90;;
51848;SDS011;38952;51.090;-1.832;2022-09-13T08:39:53;3.33;;;1.42;;
51848;SDS011;38952;51.090;-1.832;2022-09-13T08:42:21;4.40;;;1.50;;
51848;SDS011;38952;51.090;-1.832;2022-09-13T08:45:13;1.10;;;0.93;;
51848;SDS011;38952;51.090;-1.832;2022-09-13T08:47:45;3.53;;;1.30;;
51848;SDS011;38952;51.090;-1.832;2022-09-13T08:50:24;7.10;;;1.42;;
51848;SDS011;38952;51.090;-1.832;2022-09-13T08:55:42;4.17;;;1.20;;
51848;SDS011;38952;51.090;-1.832;2022-09-13T09:00:56;3.10;;;1.35;;
51848;SDS011;38952;51.090;-1.832;2022-09-13T09:03:34;2.75;;;1.40;;
51848;SDS011;38952;51.090;-1.832;2022-09-13T09:06:13;3.63;;;1.73;;
51848;SDS011;38952;51.090;-1.832;2022-09-13T09:14:32;5.05;;;1.90;;
51848;SDS011;38952;51.090;-1.832;2022-09-13T09:17:06;2.75;;;1.65;;
51848;SDS011;38952;51.090;-1.832;2022-09-13T09:19:44;5.07;;;1.92;;
51848;SDS011;38952;51.090;-1.832;2022-09-13T09:22:16;5.05;;;2.17;;
51848;SDS011;38952;51.090;-1.832;2022-09-13T09:24:45;4.70;;;1.80;;
51848;SDS011;38952;51.090;-1.832;2022-09-13T09:27:15;7.10;;;2.10;;
51848;SDS011;38952;51.090;-1.832;2022-09-13T09:29:42;3.88;;;2.15;;
51848;SDS011;38952;51.090;-1.832;2022-09-13T09:38:48;5.13;;;2.05;;
51848;SDS011;38952;51.090;-1.832;2022-09-13T09:41:21;3.40;;;1.73;;
51848;SDS011;38952;51.090;-1.832;2022-09-13T09:46:46;10.60;;;2.08;;
51848;SDS011;38952;51.090;-1.832;2022-09-13T09:49:37;7.03;;;2.28;;
51848;SDS011;38952;51.090;-1.832;2022-09-13T09:55:39;6.22;;;1.80;;
51848;SDS011;38952;51.090;-1.832;2022-09-13T09:58:01;5.10;;;1.98;;
51848;SDS011;38952;51.090;-1.832;2022-09-13T10:00:33;6.63;;;2.10;;
51848;SDS011;38952;51.090;-1.832;2022-09-13T10:03:04;4.22;;;2.20;;
51848;SDS011;38952;51.090;-1.832;2022-09-13T10:05:33;2.90;;;2.05;;
51848;SDS011;38952;51.090;-1.832;2022-09-13T10:08:04;4.30;;;2.28;;
51848;SDS011;38952;51.090;-1.832;2022-09-13T10:10:38;5.85;;;2.45;;
51848;SDS011;38952;51.090;-1.832;2022-09-13T10:13:16;5.00;;;2.08;;
51848;SDS011;38952;51.090;-1.832;2022-09-13T10:15:52;8.43;;;2.50;;
51848;SDS011;38952;51.090;-1.832;2022-09-13T10:18:19;4.43;;;2.28;;
51848;SDS011;38952;51.090;-1.832;2022-09-13T10:24:14;7.95;;;2.63;;
51848;SDS011;38952;51.090;-1.832;2022-09-13T10:26:41;3.83;;;2.22;;
51848;SDS011;38952;51.090;-1.832;2022-09-13T10:29:12;3.97;;;1.90;;
51848;SDS011;38952;51.090;-1.832;2022-09-13T10:31:41;5.13;;;2.33;;
51848;SDS011;38952;51.090;-1.832;2022-09-13T10:34:42;6.65;;;2.08;;
51848;SDS011;38952;51.090;-1.832;2022-09-13T10:39:30;2.70;;;1.80;;
51848;SDS011;38952;51.090;-1.832;2022-09-13T10:42:00;4.45;;;1.80;;
51848;SDS011;38952;51.090;-1.832;2022-09-13T10:52:50;2.05;;;1.33;;
51848;SDS011;38952;51.090;-1.832;2022-09-13T10:57:42;5.13;;;1.75;;
51848;SDS011;38952;51.090;-1.832;2022-09-13T11:00:20;1.92;;;1.10;;
51848;SDS011;38952;51.090;-1.832;2022-09-13T11:28:49;1.67;;;1.02;;
51848;SDS011;38952;51.090;-1.832;2022-09-13T11:39:37;1.42;;;0.90;;
51848;SDS011;38952;51.090;-1.832;2022-09-13T11:55:42;4.15;;;1.55;;
51848;SDS011;38952;51.090;-1.832;2022-09-13T11:58:24;2.70;;;1.25;;
51848;SDS011;38952;51.090;-1.832;2022-09-13T12:01:05;5.00;;;1.75;;
51848;SDS011;38952;51.090;-1.832;2022-09-13T12:06:14;6.95;;;1.88;;
51848;SDS011;38952;51.090;-1.832;2022-09-13T12:08:54;2.97;;;1.50;;
51848;SDS011;38952;51.090;-1.832;2022-09-13T12:11:34;5.03;;;2.00;;
51848;SDS011;38952;51.090;-1.832;2022-09-13T12:14:03;2.78;;;1.63;;
51848;SDS011;38952;51.090;-1.832;2022-09-13T12:16:33;3.67;;;1.63;;
51848;SDS011;38952;51.090;-1.832;2022-09-13T12:19:22;2.80;;;1.02;;
51848;SDS011;38952;51.090;-1.832;2022-09-13T12:22:06;1.83;;;1.00;;
51848;SDS011;38952;51.090;-1.832;2022-09-13T12:24:38;1.77;;;0.68;;
51848;SDS011;38952;51.090;-1.832;2022-09-13T12:32:14;2.90;;;0.95;;
51848;SDS011;38952;51.090;-1.832;2022-09-13T12:57:25;1.17;;;0.70;;
51848;SDS011;38952;51.090;-1.832;2022-09-13T13:05:40;0.98;;;0.50;;
51848;SDS011;38952;51.090;-1.832;2022-09-13T13:10:44;1.20;;;0.70;;
51848;SDS011;38952;51.090;-1.832;2022-09-13T13:13:40;3.20;;;0.98;;
51848;SDS011;38952;51.090;-1.832;2022-09-13T13:16:27;2.30;;;0.90;;
51848;SDS011;38952;51.090;-1.832;2022-09-13T13:18:58;1.67;;;0.80;;
51848;SDS011;38952;51.090;-1.832;2022-09-13T13:21:30;2.70;;;0.70;;
51848;SDS011;38952;51.090;-1.832;2022-09-13T13:29:16;1.85;;;0.60;;
51848;SDS011;38952;51.090;-1.832;2022-09-13T13:37:02;0.98;;;0.50;;
51848;SDS011;38952;51.090;-1.832;2022-09-13T13:41:59;0.75;;;0.50;;
51848;SDS011;38952;51.090;-1.832;2022-09-13T13:59:56;2.03;;;0.80;;
51848;SDS011;38952;51.090;-1.832;2022-09-13T14:02:37;3.50;;;1.27;;
51848;SDS011;38952;51.090;-1.832;2022-09-13T14:05:07;1.30;;;1.00;;
51848;SDS011;38952;51.090;-1.832;2022-09-13T14:13:20;1.35;;;0.73;;
51848;SDS011;38952;51.090;-1.832;2022-09-13T14:24:50;1.45;;;0.90;;
51848;SDS011;38952;51.090;-1.832;2022-09-13T14:27:24;1.55;;;1.00;;
51848;SDS011;38952;51.090;-1.832;2022-09-13T14:30:01;1.52;;;0.88;;
51848;SDS011;38952;51.090;-1.832;2022-09-13T14:32:31;1.02;;;0.80;;
51848;SDS011;38952;51.090;-1.832;2022-09-13T14:35:05;1.13;;;0.90;;
51848;SDS011;38952;51.090;-1.832;2022-09-13T14:37:50;1.83;;;1.25;;
51848;SDS011;38952;51.090;-1.832;2022-09-13T14:40:17;4.70;;;1.40;;
51848;SDS011;38952;51.090;-1.832;2022-09-13T14:42:51;2.88;;;1.08;;
51848;SDS011;38952;51.090;-1.832;2022-09-13T14:45:22;2.55;;;1.30;;
51848;SDS011;38952;51.090;-1.832;2022-09-13T14:50:31;1.58;;;0.90;;
51848;SDS011;38952;51.090;-1.832;2022-09-13T14:53:05;2.97;;;1.23;;
51848;SDS011;38952;51.090;-1.832;2022-09-13T14:55:44;3.08;;;1.30;;
51848;SDS011;38952;51.090;-1.832;2022-09-13T14:58:21;4.72;;;0.98;;
51848;SDS011;38952;51.090;-1.832;2022-09-13T15:00:53;0.77;;;0.70;;
51848;SDS011;38952;51.090;-1.832;2022-09-13T15:03:22;1.50;;;0.90;;
51848;SDS011;38952;51.090;-1.832;2022-09-13T15:05:49;1.75;;;0.98;;
51848;SDS011;38952;51.090;-1.832;2022-09-13T15:11:02;2.05;;;1.30;;
51848;SDS011;38952;51.090;-1.832;2022-09-13T15:13:30;2.35;;;0.90;;
51848;SDS011;38952;51.090;-1.832;2022-09-13T15:15:56;2.75;;;1.60;;
51848;SDS011;38952;51.090;-1.832;2022-09-13T15:18:24;1.00;;;0.88;;
51848;SDS011;38952;51.090;-1.832;2022-09-13T15:21:02;2.42;;;1.25;;
51848;SDS011;38952;51.090;-1.832;2022-09-13T15:23:40;3.17;;;1.20;;
51848;SDS011;38952;51.090;-1.832;2022-09-13T15:26:11;3.05;;;1.30;;
51848;SDS011;38952;51.090;-1.832;2022-09-13T15:31:08;1.77;;;1.20;;
51848;SDS011;38952;51.090;-1.832;2022-09-13T15:33:36;1.48;;;1.00;;
51848;SDS011;38952;51.090;-1.832;2022-09-13T15:36:12;1.55;;;0.88;;
51848;SDS011;38952;51.090;-1.832;2022-09-13T15:38:54;1.90;;;1.20;;
51848;SDS011;38952;51.090;-1.832;2022-09-13T15:41:37;2.53;;;1.15;;
51848;SDS011;38952;51.090;-1.832;2022-09-13T15:44:14;1.77;;;1.25;;
51848;SDS011;38952;51.090;-1.832;2022-09-13T15:46:45;1.80;;;1.20;;
51848;SDS011;38952;51.090;-1.832;2022-09-13T15:49:16;1.98;;;1.40;;
51848;SDS011;38952;51.090;-1.832;2022-09-13T15:51:43;6.15;;;1.85;;
51848;SDS011;38952;51.090;-1.832;2022-09-13T15:54:12;3.47;;;1.70;;
51848;SDS011;38952;51.090;-1.832;2022-09-13T15:56:40;2.22;;;1.27;;
51848;SDS011;38952;51.090;-1.832;2022-09-13T15:59:12;3.47;;;1.55;;
51848;SDS011;38952;51.090;-1.832;2022-09-13T16:01:38;2.78;;;1.40;;
51848;SDS011;38952;51.090;-1.832;2022-09-13T16:04:04;2.22;;;1.55;;
51848;SDS011;38952;51.090;-1.832;2022-09-13T16:06:30;2.85;;;1.55;;
51848;SDS011;38952;51.090;-1.832;2022-09-13T16:08:55;5.55;;;1.52;;
51848;SDS011;38952;51.090;-1.832;2022-09-13T16:11:21;3.25;;;1.30;;
51848;SDS011;38952;51.090;-1.832;2022-09-13T16:13:46;2.65;;;1.60;;
51848;SDS011;38952;51.090;-1.832;2022-09-13T16:16:12;4.18;;;1.70;;
51848;SDS011;38952;51.090;-1.832;2022-09-13T16:18:38;2.05;;;1.40;;
51848;SDS011;38952;51.090;-1.832;2022-09-13T16:21:04;3.22;;;2.00;;
51848;SDS011;38952;51.090;-1.832;2022-09-13T16:23:29;3.38;;;1.90;;
51848;SDS011;38952;51.090;-1.832;2022-09-13T16:25:55;4.45;;;1.75;;
51848;SDS011;38952;51.090;-1.832;2022-09-13T16:28:23;3.22;;;1.95;;
51848;SDS011;38952;51.090;-1.832;2022-09-13T16:30:49;8.45;;;2.40;;
51848;SDS011;38952;51.090;-1.832;2022-09-13T16:33:15;5.97;;;2.13;;
51848;SDS011;38952;51.090;-1.832;2022-09-13T16:35:40;2.47;;;2.13;;
51848;SDS011;38952;51.090;-1.832;2022-09-13T16:38:06;7.10;;;2.75;;
51848;SDS011;38952;51.090;-1.832;2022-09-13T16:40:33;5.20;;;2.75;;
51848;SDS011;38952;51.090;-1.832;2022-09-13T16:42:58;5.22;;;2.63;;
51848;SDS011;38952;51.090;-1.832;2022-09-13T16:45:24;5.32;;;2.50;;
51848;SDS011;38952;51.090;-1.832;2022-09-13T16:47:49;6.80;;;3.40;;
51848;SDS011;38952;51.090;-1.832;2022-09-13T16:50:16;4.75;;;2.42;;
51848;SDS011;38952;51.090;-1.832;2022-09-13T16:52:41;6.43;;;2.75;;
51848;SDS011;38952;51.090;-1.832;2022-09-13T16:55:07;5.82;;;2.53;;
51848;SDS011;38952;51.090;-1.832;2022-09-13T16:57:33;5.65;;;3.05;;
51848;SDS011;38952;51.090;-1.832;2022-09-13T16:59:59;4.97;;;3.22;;
51848;SDS011;38952;51.090;-1.832;2022-09-13T17:02:26;4.43;;;2.60;;
51848;SDS011;38952;51.090;-1.832;2022-09-13T17:04:52;12.15;;;3.83;;
51848;SDS011;38952;51.090;-1.832;2022-09-13T17:07:17;5.20;;;3.15;;
51848;SDS011;38952;51.090;-1.832;2022-09-13T17:09:43;5.47;;;3.95;;
51848;SDS011;38952;51.090;-1.832;2022-09-13T17:12:11;5.68;;;3.50;;
51848;SDS011;38952;51.090;-1.832;2022-09-13T17:14:38;5.80;;;3.75;;
51848;SDS011;38952;51.090;-1.832;2022-09-13T17:17:06;7.10;;;4.22;;
51848;SDS011;38952;51.090;-1.832;2022-09-13T17:19:32;7.28;;;4.43;;
51848;SDS011;38952;51.090;-1.832;2022-09-13T17:21:58;5.47;;;3.70;;
51848;SDS011;38952;51.090;-1.832;2022-09-13T17:24:25;6.80;;;4.05;;
51848;SDS011;38952;51.090;-1.832;2022-09-13T17:26:52;4.43;;;3.53;;
51848;SDS011;38952;51.090;-1.832;2022-09-13T17:29:18;8.20;;;3.63;;
51848;SDS011;38952;51.090;-1.832;2022-09-13T17:31:44;5.43;;;3.97;;
51848;SDS011;38952;51.090;-1.832;2022-09-13T17:34:11;4.97;;;3.75;;
51848;SDS011;38952;51.090;-1.832;2022-09-13T17:36:39;6.75;;;3.60;;
51848;SDS011;38952;51.090;-1.832;2022-09-13T17:39:06;3.88;;;3.13;;
51848;SDS011;38952;51.090;-1.832;2022-09-13T17:41:32;3.97;;;2.72;;
51848;SDS011;38952;51.090;-1.832;2022-09-13T17:43:57;4.22;;;2.88;;
51848;SDS011;38952;51.090;-1.832;2022-09-13T17:46:24;4.03;;;2.65;;
51848;SDS011;38952;51.090;-1.832;2022-09-13T17:48:53;4.18;;;2.35;;
51848;SDS011;38952;51.090;-1.832;2022-09-13T17:51:21;3.83;;;2.22;;
51848;SDS011;38952;51.090;-1.832;2022-09-13T17:53:53;5.13;;;2.78;;
51848;SDS011;38952;51.090;-1.832;2022-09-13T17:56:43;5.83;;;3.00;;
51848;SDS011;38952;51.090;-1.832;2022-09-13T18:01:39;4.43;;;3.15;;
51848;SDS011;38952;51.090;-1.832;2022-09-13T18:04:07;4.93;;;2.92;;
51848;SDS011;38952;51.090;-1.832;2022-09-13T18:06:33;4.55;;;2.80;;
51848;SDS011;38952;51.090;-1.832;2022-09-13T18:09:00;4.07;;;2.70;;
51848;SDS011;38952;51.090;-1.832;2022-09-13T18:11:26;5.85;;;3.45;;
51848;SDS011;38952;51.090;-1.832;2022-09-13T18:13:51;8.55;;;3.95;;
51848;SDS011;38952;51.090;-1.832;2022-09-13T18:16:18;6.95;;;4.05;;
51848;SDS011;38952;51.090;-1.832;2022-09-13T18:18:46;4.80;;;3.70;;
51848;SDS011;38952;51.090;-1.832;2022-09-13T18:21:12;4.30;;;2.67;;
51848;SDS011;38952;51.090;-1.832;2022-09-13T18:23:44;5.53;;;2.95;;
51848;SDS011;38952;51.090;-1.832;2022-09-13T18:26:12;4.65;;;2.70;;
51848;SDS011;38952;51.090;-1.832;2022-09-13T18:28:39;6.15;;;3.42;;
51848;SDS011;38952;51.090;-1.832;2022-09-13T18:31:07;7.35;;;3.88;;
51848;SDS011;38952;51.090;-1.832;2022-09-13T18:33:36;5.90;;;3.42;;
51848;SDS011;38952;51.090;-1.832;2022-09-13T18:36:12;6.82;;;4.00;;
51848;SDS011;38952;51.090;-1.832;2022-09-13T18:38:40;6.70;;;3.95;;
51848;SDS011;38952;51.090;-1.832;2022-09-13T18:41:13;6.13;;;3.83;;
51848;SDS011;38952;51.090;-1.832;2022-09-13T18:43:39;6.95;;;4.32;;